createdAt,value
2022-11-08T00:00:34.021Z,12.12
2022-11-08T00:03:00.319Z,12.08
2022-11-08T00:05:26.560Z,12.06
2022-11-08T00:07:52.786Z,12.06
2022-11-08T00:10:18.996Z,12.06
2022-11-08T00:12:45.216Z,12.12
2022-11-08T00:15:11.426Z,12.10
2022-11-08T00:17:37.633Z,12.15
2022-11-08T00:20:04.269Z,12.14
2022-11-08T00:22:30.499Z,12.09
2022-11-08T00:24:56.712Z,12.17
2022-11-08T00:27:23.124Z,12.12
2022-11-08T00:29:49.349Z,12.14
2022-11-08T00:32:16.424Z,12.13
2022-11-08T00:34:42.647Z,12.13
2022-11-08T00:37:09.236Z,12.14
2022-11-08T00:39:35.472Z,12.10
2022-11-08T00:42:01.713Z,12.09
2022-11-08T00:44:27.980Z,12.21
2022-11-08T00:46:54.181Z,12.32
2022-11-08T00:49:20.383Z,12.25
2022-11-08T00:51:46.581Z,12.23
2022-11-08T00:54:13.526Z,12.21
2022-11-08T00:56:39.730Z,12.24
2022-11-08T00:59:05.950Z,12.20
2022-11-08T01:01:32.373Z,12.22
2022-11-08T01:03:58.636Z,12.20
2022-11-08T01:06:25.010Z,12.16
2022-11-08T01:08:51.407Z,12.13
2022-11-08T01:11:18.447Z,12.16
2022-11-08T01:13:44.727Z,12.16
2022-11-08T01:16:11.933Z,12.16
2022-11-08T01:18:38.145Z,12.11
2022-11-08T01:21:04.343Z,12.11
2022-11-08T01:23:30.547Z,12.13
2022-11-08T01:25:56.757Z,12.14
2022-11-08T01:28:22.976Z,12.08
2022-11-08T01:30:49.186Z,12.13
2022-11-08T01:33:15.464Z,12.17
2022-11-08T01:35:43.368Z,12.19
2022-11-08T01:38:09.645Z,12.14
2022-11-08T01:40:41.685Z,12.14
2022-11-08T01:43:26.275Z,12.20
2022-11-08T01:46:04.605Z,12.23
2022-11-08T01:48:30.821Z,12.16
2022-11-08T01:50:57.021Z,12.09
2022-11-08T01:53:23.385Z,12.22
2022-11-08T01:55:49.598Z,12.20
2022-11-08T01:58:17.168Z,12.19
2022-11-08T02:00:43.647Z,12.21
2022-11-08T02:03:10.386Z,12.11
2022-11-08T02:05:36.588Z,12.01
2022-11-08T02:08:04.712Z,12.04
2022-11-08T02:10:40.959Z,12.08
2022-11-08T02:13:13.335Z,12.04
2022-11-08T02:15:40.804Z,11.96
2022-11-08T02:18:07.024Z,11.91
2022-11-08T02:20:33.393Z,12.01
2022-11-08T02:23:14.060Z,12.05
2022-11-08T02:25:40.264Z,11.97
2022-11-08T02:28:06.486Z,12.00
2022-11-08T02:30:35.973Z,12.00
2022-11-08T02:33:18.476Z,12.04
2022-11-08T02:35:44.918Z,12.05
2022-11-08T02:38:11.130Z,11.96
2022-11-08T02:40:50.509Z,11.90
2022-11-08T02:43:16.711Z,11.83
2022-11-08T02:45:42.899Z,11.79
2022-11-08T02:48:09.122Z,11.81
2022-11-08T02:50:35.320Z,11.84
2022-11-08T02:53:01.532Z,11.91
2022-11-08T02:55:28.249Z,11.89
2022-11-08T02:57:54.440Z,11.84
2022-11-08T03:00:20.654Z,11.88
2022-11-08T03:02:46.939Z,11.88
2022-11-08T03:05:13.225Z,11.85
2022-11-08T03:07:39.433Z,11.88
2022-11-08T03:10:05.865Z,11.85
2022-11-08T03:12:32.077Z,11.84
2022-11-08T03:14:58.294Z,11.81
2022-11-08T03:17:24.532Z,11.87
2022-11-08T03:19:50.735Z,11.80
2022-11-08T03:22:16.946Z,11.82
2022-11-08T03:24:43.161Z,11.98
2022-11-08T03:27:09.380Z,11.82
2022-11-08T03:29:35.602Z,11.80
2022-11-08T03:32:01.815Z,11.70
2022-11-08T03:34:28.033Z,11.60
2022-11-08T03:36:54.246Z,11.54
2022-11-08T03:39:20.456Z,11.47
2022-11-08T03:41:46.662Z,11.35
2022-11-08T03:44:12.872Z,11.31
2022-11-08T03:46:39.073Z,11.30
2022-11-08T03:49:05.281Z,11.26
2022-11-08T03:51:31.475Z,11.31
2022-11-08T03:53:57.693Z,11.34
2022-11-08T03:56:23.926Z,11.34
2022-11-08T03:58:50.152Z,11.25
2022-11-08T04:01:16.427Z,11.18
2022-11-08T04:03:42.659Z,11.12
2022-11-08T04:06:08.856Z,11.06
2022-11-08T04:08:35.068Z,11.04
2022-11-08T04:11:01.281Z,11.01
2022-11-08T04:13:27.491Z,11.04
2022-11-08T04:15:54.361Z,11.00
2022-11-08T04:18:21.013Z,10.98
2022-11-08T04:20:47.685Z,10.98
2022-11-08T04:23:14.211Z,10.95
2022-11-08T04:25:40.442Z,11.03
2022-11-08T04:28:06.653Z,10.90
2022-11-08T04:30:32.860Z,10.83
2022-11-08T04:33:02.509Z,10.77
2022-11-08T04:35:29.049Z,10.83
2022-11-08T04:37:58.672Z,10.94
2022-11-08T04:40:24.880Z,10.88
2022-11-08T04:42:51.076Z,10.94
2022-11-08T04:45:17.290Z,10.95
2022-11-08T04:47:48.486Z,10.85
2022-11-08T04:50:14.989Z,10.95
2022-11-08T04:52:41.228Z,10.83
2022-11-08T04:55:07.767Z,10.83
2022-11-08T04:57:34.052Z,10.82
2022-11-08T05:00:00.269Z,10.77
2022-11-08T05:02:26.575Z,10.81
2022-11-08T05:04:52.892Z,10.77
2022-11-08T05:07:19.091Z,10.71
2022-11-08T05:09:45.315Z,10.76
2022-11-08T05:12:11.519Z,10.70
2022-11-08T05:14:37.729Z,10.73
2022-11-08T05:17:03.945Z,10.70
2022-11-08T05:19:30.161Z,10.67
2022-11-08T05:21:56.370Z,10.63
2022-11-08T05:24:22.578Z,10.75
2022-11-08T05:26:48.768Z,10.73
2022-11-08T05:29:15.138Z,10.71
2022-11-08T05:31:41.341Z,10.61
2022-11-08T05:34:07.555Z,10.59
2022-11-08T05:36:33.769Z,10.59
2022-11-08T05:38:59.980Z,10.53
2022-11-08T05:41:26.200Z,10.54
2022-11-08T05:43:52.924Z,10.55
2022-11-08T05:46:19.209Z,10.47
2022-11-08T05:48:45.489Z,10.43
2022-11-08T05:51:11.688Z,10.38
2022-11-08T05:53:38.152Z,10.28
2022-11-08T05:56:04.488Z,10.27
2022-11-08T05:58:31.084Z,10.23
2022-11-08T06:01:04.081Z,10.31
2022-11-08T06:03:30.848Z,10.35
2022-11-08T06:06:01.132Z,10.28
2022-11-08T06:08:27.340Z,10.29
2022-11-08T06:10:53.562Z,10.23
2022-11-08T06:13:19.770Z,10.17
2022-11-08T06:15:45.995Z,10.18
2022-11-08T06:18:12.202Z,10.17
2022-11-08T06:20:38.408Z,10.18
2022-11-08T06:23:04.603Z,10.19
2022-11-08T06:25:30.815Z,10.21
2022-11-08T06:27:58.949Z,10.17
2022-11-08T06:30:25.167Z,10.16
2022-11-08T06:32:51.360Z,10.14
2022-11-08T06:35:17.818Z,10.21
2022-11-08T06:37:44.230Z,10.22
2022-11-08T06:40:10.599Z,10.18
2022-11-08T06:42:36.811Z,10.24
2022-11-08T06:45:03.031Z,10.19
2022-11-08T06:47:29.250Z,10.15
2022-11-08T06:49:55.478Z,10.23
2022-11-08T06:52:21.686Z,10.22
2022-11-08T06:54:47.893Z,10.34
2022-11-08T06:57:14.089Z,10.36
2022-11-08T06:59:40.309Z,10.38
2022-11-08T07:02:06.640Z,10.35
2022-11-08T07:04:32.896Z,10.31
2022-11-08T07:06:59.102Z,10.37
2022-11-08T07:09:25.382Z,10.39
2022-11-08T07:11:51.594Z,10.43
2022-11-08T07:14:17.843Z,10.55
2022-11-08T07:16:44.041Z,10.62
2022-11-08T07:19:10.245Z,10.68
2022-11-08T07:21:36.467Z,10.72
2022-11-08T07:24:02.669Z,10.75
2022-11-08T07:26:28.883Z,10.79
2022-11-08T07:28:55.089Z,10.83
2022-11-08T07:31:21.299Z,10.88
2022-11-08T07:33:47.510Z,11.00
2022-11-08T07:36:13.725Z,11.08
2022-11-08T07:38:39.922Z,11.18
2022-11-08T07:41:06.154Z,11.41
2022-11-08T07:43:32.370Z,11.58
2022-11-08T07:45:59.192Z,11.75
2022-11-08T07:48:25.497Z,11.82
2022-11-08T07:50:51.711Z,11.92
2022-11-08T07:53:18.191Z,11.95
2022-11-08T07:55:45.020Z,11.97
2022-11-08T07:58:11.272Z,11.94
2022-11-08T08:00:37.783Z,11.97
2022-11-08T08:03:04.464Z,11.87
2022-11-08T08:05:33.192Z,11.87
2022-11-08T08:07:59.664Z,11.86
2022-11-08T08:10:26.206Z,11.82
2022-11-08T08:12:52.439Z,11.81
2022-11-08T08:15:18.659Z,11.81
2022-11-08T08:17:44.870Z,11.90
2022-11-08T08:20:11.389Z,11.86
2022-11-08T08:22:42.550Z,11.84
2022-11-08T08:25:08.993Z,11.81
2022-11-08T08:27:35.218Z,11.88
2022-11-08T08:30:01.431Z,11.95
2022-11-08T08:32:31.431Z,11.98
2022-11-08T08:34:57.939Z,12.08
2022-11-08T08:37:24.152Z,12.13
2022-11-08T08:39:50.357Z,12.23
2022-11-08T08:42:16.570Z,12.27
2022-11-08T08:44:42.782Z,12.23
2022-11-08T08:47:08.992Z,12.20
2022-11-08T08:49:35.195Z,12.30
2022-11-08T08:52:01.406Z,12.32
2022-11-08T08:54:29.546Z,12.46
2022-11-08T08:56:55.891Z,12.55
2022-11-08T09:02:08.733Z,12.79
2022-11-08T09:04:35.597Z,12.72
2022-11-08T09:07:02.151Z,12.69
2022-11-08T09:09:28.415Z,12.66
2022-11-08T09:11:54.625Z,12.70
2022-11-08T09:14:20.869Z,12.84
2022-11-08T09:16:47.100Z,13.02
2022-11-08T09:19:13.302Z,13.31
2022-11-08T09:21:39.551Z,13.51
2022-11-08T09:24:05.901Z,13.70
2022-11-08T09:26:32.108Z,13.94
2022-11-08T09:28:59.536Z,13.94
2022-11-08T09:31:25.744Z,13.91
2022-11-08T09:33:51.948Z,13.78
2022-11-08T09:36:18.168Z,13.69
2022-11-08T09:38:44.368Z,13.81
2022-11-08T09:41:20.842Z,13.95
2022-11-08T09:44:05.735Z,14.12
2022-11-08T09:46:47.373Z,14.33
2022-11-08T09:49:18.304Z,14.37
2022-11-08T09:51:44.512Z,14.46
2022-11-08T09:54:21.328Z,14.54
2022-11-08T09:56:47.537Z,14.44
2022-11-08T09:59:19.957Z,14.38
2022-11-08T10:01:46.253Z,14.28
2022-11-08T10:04:13.877Z,14.22
2022-11-08T10:06:43.095Z,14.21
2022-11-08T10:09:28.007Z,14.15
2022-11-08T10:11:54.168Z,14.04
2022-11-08T10:14:48.936Z,14.06
2022-11-08T10:17:21.476Z,14.11
2022-11-08T10:19:54.053Z,14.20
2022-11-08T10:22:23.114Z,14.32
2022-11-08T10:25:01.721Z,14.26
2022-11-08T10:27:27.894Z,14.20
2022-11-08T10:29:54.845Z,14.20
2022-11-08T10:32:21.625Z,14.21
2022-11-08T10:35:06.217Z,14.33
2022-11-08T10:37:32.797Z,14.22
2022-11-08T10:40:03.634Z,14.32
2022-11-08T10:42:33.370Z,14.32
2022-11-08T10:44:59.574Z,14.34
2022-11-08T10:47:26.307Z,14.34
2022-11-08T10:49:52.629Z,14.32
2022-11-08T10:52:19.631Z,14.32
2022-11-08T10:54:52.647Z,14.31
2022-11-08T10:57:34.372Z,14.26
2022-11-08T11:00:19.380Z,14.27
2022-11-08T11:02:46.821Z,14.26
2022-11-08T11:05:16.085Z,14.32
2022-11-08T11:07:45.705Z,14.38
2022-11-08T11:10:17.052Z,14.31
2022-11-08T11:12:45.388Z,14.30
2022-11-08T11:15:14.907Z,14.30
2022-11-08T11:17:43.727Z,14.31
2022-11-08T11:20:18.121Z,14.39
2022-11-08T11:22:44.369Z,14.58
2022-11-08T11:25:14.214Z,14.64
2022-11-08T11:27:40.424Z,14.64
2022-11-08T11:30:21.919Z,14.70
2022-11-08T11:32:54.835Z,14.74
2022-11-08T11:35:21.076Z,14.81
2022-11-08T11:37:47.339Z,14.88
2022-11-08T11:40:13.490Z,14.86
2022-11-08T11:42:51.574Z,14.82
2022-11-08T11:45:19.107Z,14.85
2022-11-08T11:48:11.698Z,14.81
2022-11-08T11:50:38.500Z,14.86
2022-11-08T11:53:24.695Z,14.98
2022-11-08T11:56:12.599Z,15.05
2022-11-08T11:58:50.906Z,15.11
2022-11-08T12:01:24.824Z,15.15
2022-11-08T12:03:55.385Z,15.06
2022-11-08T12:06:28.197Z,15.03
2022-11-08T12:09:01.287Z,15.09
2022-11-08T12:11:33.569Z,15.07
2022-11-08T12:14:21.326Z,15.06
2022-11-08T12:17:07.132Z,15.09
2022-11-08T12:19:52.616Z,15.01
2022-11-08T12:22:21.570Z,14.92
2022-11-08T12:24:55.046Z,14.91
2022-11-08T12:27:36.640Z,14.85
2022-11-08T12:30:04.022Z,14.86
2022-11-08T12:32:36.208Z,14.83
2022-11-08T12:35:05.498Z,14.74
2022-11-08T12:37:46.805Z,14.77
2022-11-08T12:40:31.894Z,14.79
2022-11-08T12:43:14.012Z,14.73
2022-11-08T12:45:56.744Z,14.81
2022-11-08T12:48:22.913Z,14.78
2022-11-08T12:51:04.515Z,14.76
2022-11-08T12:53:35.149Z,14.72
2022-11-08T12:56:01.389Z,14.75
2022-11-08T12:58:39.223Z,14.80
2022-11-08T13:01:06.520Z,14.74
2022-11-08T13:03:41.937Z,14.74
2022-11-08T13:06:12.306Z,14.75
2022-11-08T13:08:40.914Z,14.73
2022-11-08T13:11:07.668Z,14.72
2022-11-08T13:13:37.826Z,14.69
2022-11-08T13:16:08.249Z,14.73
2022-11-08T13:18:43.552Z,14.65
2022-11-08T13:21:27.961Z,14.63
2022-11-08T13:23:54.608Z,14.67
2022-11-08T13:26:21.406Z,14.63
2022-11-08T13:28:47.681Z,14.65
2022-11-08T13:31:23.016Z,14.62
2022-11-08T13:33:56.173Z,14.56
2022-11-08T13:36:26.328Z,14.53
2022-11-08T13:38:52.488Z,14.61
2022-11-08T13:41:19.585Z,14.54
2022-11-08T13:43:45.887Z,14.52
2022-11-08T13:46:18.064Z,14.64
2022-11-08T13:48:47.037Z,14.60
2022-11-08T13:51:23.367Z,14.63
2022-11-08T13:53:49.939Z,14.63
2022-11-08T13:56:23.402Z,14.60
2022-11-08T13:58:49.622Z,14.59
2022-11-08T14:01:18.705Z,14.52
2022-11-08T14:03:47.767Z,14.45
2022-11-08T14:06:13.923Z,14.37
2022-11-08T14:08:46.006Z,14.36
2022-11-08T14:11:30.800Z,14.43
2022-11-08T14:14:02.863Z,14.49
2022-11-08T14:16:30.246Z,14.42
2022-11-08T14:19:05.538Z,14.40
2022-11-08T14:21:31.734Z,14.44
2022-11-08T14:23:57.940Z,14.41
2022-11-08T14:26:24.192Z,14.36
2022-11-08T14:28:50.689Z,14.29
2022-11-08T14:31:24.061Z,14.30
2022-11-08T14:33:50.272Z,14.22
2022-11-08T14:36:17.087Z,14.18
2022-11-08T14:38:50.521Z,14.18
2022-11-08T14:41:18.952Z,14.14
2022-11-08T14:43:45.335Z,14.12
2022-11-08T14:46:12.095Z,14.08
2022-11-08T14:48:38.295Z,14.05
2022-11-08T14:51:04.934Z,14.06
2022-11-08T14:53:31.768Z,14.04
2022-11-08T14:56:01.703Z,14.08
2022-11-08T14:58:28.346Z,13.95
2022-11-08T15:00:54.614Z,13.87
2022-11-08T15:03:21.181Z,13.86
2022-11-08T15:05:48.158Z,13.83
2022-11-08T15:08:40.654Z,13.82
2022-11-08T15:11:07.504Z,13.84
2022-11-08T15:13:38.385Z,13.73
2022-11-08T15:16:04.866Z,13.66
2022-11-08T15:18:32.192Z,13.68
2022-11-08T15:20:59.632Z,13.67
2022-11-08T15:23:27.005Z,13.64
2022-11-08T15:25:56.966Z,13.55
2022-11-08T15:28:23.485Z,13.53
2022-11-08T15:30:56.924Z,13.55
2022-11-08T15:33:36.185Z,13.49
2022-11-08T15:36:02.430Z,13.38
2022-11-08T15:38:29.743Z,13.43
2022-11-08T15:40:56.365Z,13.36
2022-11-08T15:43:31.615Z,13.27
2022-11-08T15:46:01.078Z,13.29
2022-11-08T15:48:27.284Z,13.24
2022-11-08T15:50:55.380Z,13.22
2022-11-08T15:53:21.589Z,13.11
2022-11-08T15:55:57.522Z,13.02
2022-11-08T15:58:36.367Z,12.98
2022-11-08T16:01:02.749Z,12.93
2022-11-08T16:03:29.056Z,12.93
2022-11-08T16:05:55.268Z,12.94
2022-11-08T16:08:21.593Z,12.91
2022-11-08T16:10:48.799Z,12.85
2022-11-08T16:13:16.198Z,12.81
2022-11-08T16:15:42.414Z,12.75
2022-11-08T16:18:09.630Z,12.79
2022-11-08T16:20:35.961Z,12.91
2022-11-08T16:23:06.045Z,12.98
2022-11-08T16:25:36.842Z,12.94
2022-11-08T16:28:08.590Z,12.99
2022-11-08T16:30:35.303Z,13.09
2022-11-08T16:33:01.507Z,13.13
2022-11-08T16:35:27.721Z,13.09
2022-11-08T16:37:53.920Z,13.10
2022-11-08T16:40:20.889Z,13.20
2022-11-08T16:42:47.602Z,13.20
2022-11-08T16:45:13.895Z,13.28
2022-11-08T16:47:43.484Z,13.27
2022-11-08T16:50:27.691Z,13.34
2022-11-08T16:52:53.887Z,13.39
2022-11-08T16:55:20.254Z,13.34
2022-11-08T16:57:46.493Z,13.36
2022-11-08T17:00:13.850Z,13.37
2022-11-08T17:02:41.276Z,13.30
2022-11-08T17:05:10.221Z,13.33
2022-11-08T17:07:36.420Z,13.43
2022-11-08T17:10:02.637Z,13.38
2022-11-08T17:12:28.981Z,13.40
2022-11-08T17:14:55.191Z,13.46
2022-11-08T17:17:21.403Z,13.47
2022-11-08T17:19:47.626Z,13.57
2022-11-08T17:22:13.820Z,13.65
2022-11-08T17:24:40.037Z,13.64
2022-11-08T17:27:06.246Z,13.66
2022-11-08T17:29:32.458Z,13.62
2022-11-08T17:31:58.654Z,13.68
2022-11-08T17:34:24.867Z,13.78
2022-11-08T17:36:51.077Z,13.78
2022-11-08T17:39:17.275Z,13.85
2022-11-08T17:41:43.491Z,13.80
2022-11-08T17:44:09.720Z,13.76
2022-11-08T17:46:35.929Z,13.90
2022-11-08T17:49:02.136Z,13.81
2022-11-08T17:51:28.331Z,13.79
2022-11-08T17:53:54.548Z,13.79
2022-11-08T17:56:20.770Z,13.86
2022-11-08T17:58:47.249Z,13.80
2022-11-08T18:01:13.546Z,13.74
2022-11-08T18:03:39.833Z,13.76
2022-11-08T18:06:06.719Z,13.78
2022-11-08T18:08:33.343Z,13.73
2022-11-08T18:10:59.622Z,13.70
2022-11-08T18:13:26.088Z,13.66
2022-11-08T18:15:52.297Z,13.60
2022-11-08T18:18:18.513Z,13.60
2022-11-08T18:20:44.812Z,13.66
2022-11-08T18:23:11.017Z,13.70
2022-11-08T18:25:37.231Z,13.72
2022-11-08T18:28:03.424Z,13.61
2022-11-08T18:30:29.676Z,13.63
2022-11-08T18:32:55.886Z,13.61
2022-11-08T18:35:22.109Z,13.62
2022-11-08T18:37:48.323Z,13.60
2022-11-08T18:40:14.541Z,13.56
2022-11-08T18:42:40.735Z,13.54
2022-11-08T18:45:07.171Z,13.51
2022-11-08T18:47:33.381Z,13.55
2022-11-08T18:49:59.597Z,13.56
2022-11-08T18:52:25.817Z,13.54
2022-11-08T18:54:52.038Z,13.47
2022-11-08T18:57:18.244Z,13.53
2022-11-08T18:59:44.462Z,13.53
2022-11-08T19:02:11.011Z,13.49
2022-11-08T19:04:37.267Z,13.50
2022-11-08T19:07:03.549Z,13.44
2022-11-08T19:09:29.805Z,13.39
2022-11-08T19:11:56.011Z,13.45
2022-11-08T19:14:22.221Z,13.35
2022-11-08T19:16:48.425Z,13.42
2022-11-08T19:19:14.754Z,13.32
2022-11-08T19:21:40.969Z,13.29
2022-11-08T19:24:07.291Z,13.26
2022-11-08T19:26:33.495Z,13.30
2022-11-08T19:28:59.701Z,13.31
2022-11-08T19:31:25.919Z,13.26
2022-11-08T19:33:52.451Z,13.29
2022-11-08T19:36:19.526Z,13.34
2022-11-08T19:38:45.729Z,13.36
2022-11-08T19:41:12.709Z,13.35
2022-11-08T19:43:39.531Z,13.40
2022-11-08T19:46:06.383Z,13.45
2022-11-08T19:48:34.172Z,13.48
2022-11-08T19:51:01.097Z,13.49
2022-11-08T19:53:27.450Z,13.42
2022-11-08T19:56:03.302Z,13.35
2022-11-08T19:58:30.428Z,13.40
2022-11-08T20:00:56.651Z,13.39
2022-11-08T20:03:22.885Z,13.40
2022-11-08T20:05:52.339Z,13.39
2022-11-08T20:08:19.036Z,13.40
2022-11-08T20:10:45.453Z,13.42
2022-11-08T20:13:11.684Z,13.37
2022-11-08T20:15:37.906Z,13.37
2022-11-08T20:18:04.243Z,13.34
2022-11-08T20:20:30.458Z,13.41
2022-11-08T20:22:56.759Z,13.38
2022-11-08T20:25:23.041Z,13.38
2022-11-08T20:27:49.237Z,13.31
2022-11-08T20:30:15.462Z,13.23
2022-11-08T20:32:41.679Z,13.19
2022-11-08T20:35:08.632Z,13.13
2022-11-08T20:37:34.971Z,13.17
2022-11-08T20:40:01.194Z,13.13
2022-11-08T20:42:27.412Z,13.15
2022-11-08T20:44:53.611Z,13.13
2022-11-08T20:47:19.949Z,13.17
2022-11-08T20:49:46.163Z,13.10
2022-11-08T20:52:12.380Z,13.03
2022-11-08T20:54:43.608Z,13.10
2022-11-08T20:57:10.160Z,13.07
2022-11-08T20:59:36.366Z,13.14
2022-11-08T21:02:02.655Z,13.15
2022-11-08T21:04:28.925Z,13.17
2022-11-08T21:07:59.628Z,13.10
2022-11-08T21:09:49.872Z,13.05
2022-11-08T21:12:16.881Z,13.06
2022-11-08T21:14:43.133Z,13.03
2022-11-08T21:17:21.904Z,13.07
2022-11-08T21:19:48.780Z,13.00
2022-11-08T21:22:15.075Z,13.01
2022-11-08T21:24:41.656Z,13.01
2022-11-08T21:27:07.899Z,13.06
2022-11-08T21:29:34.103Z,13.05
2022-11-08T21:32:00.321Z,13.08
2022-11-08T21:34:32.023Z,13.00
2022-11-08T21:36:58.646Z,12.97
2022-11-08T21:39:24.944Z,12.97
2022-11-08T21:41:51.147Z,12.94
2022-11-08T21:44:17.360Z,12.92
2022-11-08T21:46:43.574Z,12.93
2022-11-08T21:49:12.865Z,12.85
2022-11-08T21:51:39.074Z,12.80
2022-11-08T21:54:05.322Z,12.78
2022-11-08T21:56:32.825Z,12.80
2022-11-08T21:58:59.106Z,12.80
2022-11-08T22:01:29.867Z,12.78
2022-11-08T22:03:57.048Z,12.74
2022-11-08T22:06:23.282Z,12.73
2022-11-08T22:08:49.493Z,12.78
2022-11-08T22:11:15.692Z,12.76
2022-11-08T22:13:41.902Z,12.77
2022-11-08T22:16:08.131Z,12.81
2022-11-08T22:21:20.548Z,12.80
2022-11-08T22:23:46.758Z,12.76
2022-11-08T22:26:12.979Z,12.74
2022-11-08T22:28:39.189Z,12.67
2022-11-08T22:31:05.464Z,12.65
2022-11-08T22:33:31.662Z,12.62
2022-11-08T22:35:57.876Z,12.68
2022-11-08T22:38:24.083Z,12.72
2022-11-08T22:40:50.294Z,12.74
2022-11-08T22:43:16.498Z,12.73
2022-11-08T22:45:42.865Z,12.69
2022-11-08T22:48:09.068Z,12.73
2022-11-08T22:50:35.285Z,12.75
2022-11-08T22:53:01.482Z,12.78
2022-11-08T22:55:27.707Z,12.76
2022-11-08T22:57:53.917Z,12.79
2022-11-08T23:00:20.233Z,12.73
2022-11-08T23:02:46.509Z,12.71
2022-11-08T23:05:12.715Z,12.66
2022-11-08T23:07:38.937Z,12.66
2022-11-08T23:10:05.351Z,12.67
2022-11-08T23:12:31.574Z,12.80
2022-11-08T23:14:57.786Z,12.89
2022-11-08T23:17:24.003Z,12.87
2022-11-08T23:19:50.218Z,12.81
2022-11-08T23:22:16.633Z,12.78
2022-11-08T23:24:42.847Z,12.74
2022-11-08T23:27:09.237Z,12.79
2022-11-08T23:29:35.447Z,12.78
2022-11-08T23:32:01.660Z,12.77
2022-11-08T23:34:27.860Z,12.68
2022-11-08T23:36:54.068Z,12.74
2022-11-08T23:39:20.265Z,12.74
2022-11-08T23:41:46.481Z,12.76
2022-11-08T23:44:12.688Z,12.80
2022-11-08T23:46:39.034Z,12.75
2022-11-08T23:49:05.251Z,12.72
2022-11-08T23:51:31.470Z,12.77
2022-11-08T23:53:57.673Z,12.80
2022-11-08T23:56:24.448Z,12.75
2022-11-08T23:58:51.167Z,12.82
